createdAt,value
2018-01-10T00:00:03.270Z,86.19
2018-01-10T00:01:03.191Z,86.86
2018-01-10T00:02:03.121Z,86.76
2018-01-10T00:03:03.034Z,86.19
2018-01-10T00:04:03.006Z,86.67
2018-01-10T00:05:02.879Z,86.57
2018-01-10T00:06:02.819Z,86.19
2018-01-10T00:07:02.754Z,86.10
2018-01-10T00:08:02.639Z,86.95
2018-01-10T00:09:02.556Z,86.86
2018-01-10T00:10:02.469Z,86.10
2018-01-10T00:11:02.400Z,86.29
2018-01-10T00:12:02.306Z,86.76
2018-01-10T00:13:02.237Z,86.67
2018-01-10T00:14:02.148Z,87.05
2018-01-10T00:15:02.070Z,86.95
2018-01-10T00:16:01.988Z,87.14
2018-01-10T00:17:01.919Z,87.43
2018-01-10T00:18:01.837Z,87.71
2018-01-10T00:19:01.754Z,87.71
2018-01-10T00:20:01.672Z,87.62
2018-01-10T00:21:01.597Z,88.19
2018-01-10T00:22:01.507Z,87.81
2018-01-10T00:23:01.467Z,87.90
2018-01-10T00:24:01.360Z,88.19
2018-01-10T00:25:01.268Z,88.09
2018-01-10T00:26:01.196Z,88.38
2018-01-10T00:27:01.116Z,88.47
2018-01-10T00:28:01.034Z,88.38
2018-01-10T00:29:00.951Z,88.38
2018-01-10T00:30:00.871Z,88.28
2018-01-10T00:31:00.792Z,87.81
2018-01-10T00:32:00.722Z,87.62
2018-01-10T00:33:00.631Z,87.71
2018-01-10T00:34:00.557Z,87.71
2018-01-10T00:35:00.476Z,88.00
2018-01-10T00:36:00.386Z,87.62
2018-01-10T00:37:00.313Z,87.81
2018-01-10T00:38:00.230Z,88.38
2018-01-10T00:39:00.181Z,87.43
2018-01-10T00:40:00.076Z,87.14
2018-01-10T00:40:59.996Z,87.62
2018-01-10T00:41:59.908Z,87.81
2018-01-10T00:42:59.837Z,87.81
2018-01-10T00:43:59.747Z,88.00
2018-01-10T00:44:59.674Z,87.34
2018-01-10T00:45:59.588Z,87.81
2018-01-10T00:46:59.511Z,87.81
2018-01-10T00:47:59.430Z,88.28
2018-01-10T00:48:59.348Z,88.00
2018-01-10T00:49:59.292Z,88.28
2018-01-10T00:50:59.186Z,88.19
2018-01-10T00:51:59.107Z,88.28
2018-01-10T00:52:59.027Z,88.19
2018-01-10T00:53:58.953Z,88.19
2018-01-10T00:54:58.868Z,88.47
2018-01-10T00:55:58.784Z,88.19
2018-01-10T00:56:58.713Z,88.19
2018-01-10T00:57:58.632Z,88.00
2018-01-10T00:58:58.545Z,88.47
2018-01-10T00:59:58.463Z,88.67
2018-01-10T01:00:58.434Z,88.57
2018-01-10T01:01:58.303Z,88.95
2018-01-10T01:02:58.219Z,89.90
2018-01-10T01:03:58.151Z,89.52
2018-01-10T01:04:58.071Z,89.71
2018-01-10T01:05:57.991Z,90.00
2018-01-10T01:06:57.927Z,89.95
2018-01-10T01:07:57.820Z,89.95
2018-01-10T01:08:57.740Z,90.61
2018-01-10T01:09:57.659Z,90.42
2018-01-10T01:10:57.584Z,90.42
2018-01-10T01:11:57.531Z,90.23
2018-01-10T01:12:57.432Z,90.05
2018-01-10T01:13:57.349Z,90.23
2018-01-10T01:14:57.271Z,90.33
2018-01-10T01:15:57.183Z,90.80
2018-01-10T01:16:57.132Z,90.71
2018-01-10T01:17:57.030Z,90.99
2018-01-10T01:18:56.938Z,91.09
2018-01-10T01:19:56.866Z,90.90
2018-01-10T01:20:56.786Z,91.56
2018-01-10T01:21:56.705Z,91.38
2018-01-10T01:22:56.629Z,91.38
2018-01-10T01:23:56.541Z,91.75
2018-01-10T01:24:56.472Z,91.56
2018-01-10T01:25:56.378Z,91.56
2018-01-10T01:26:56.302Z,91.28
2018-01-10T01:27:56.254Z,91.47
2018-01-10T01:28:56.139Z,91.28
2018-01-10T01:29:56.106Z,91.19
2018-01-10T01:30:55.980Z,91.56
2018-01-10T01:31:55.906Z,91.47
2018-01-10T01:32:55.817Z,91.56
2018-01-10T01:33:55.750Z,91.56
2018-01-10T01:34:55.659Z,91.52
2018-01-10T01:35:55.580Z,91.52
2018-01-10T01:36:55.502Z,90.94
2018-01-10T01:37:55.420Z,90.75
2018-01-10T01:38:55.361Z,90.85
2018-01-10T01:39:55.256Z,91.04
2018-01-10T01:40:55.179Z,90.94
2018-01-10T01:41:55.103Z,91.04
2018-01-10T01:42:55.020Z,90.75
2018-01-10T01:43:54.938Z,91.04
2018-01-10T01:44:54.860Z,90.56
2018-01-10T01:45:54.773Z,90.75
2018-01-10T01:46:54.693Z,91.13
2018-01-10T01:47:54.611Z,90.85
2018-01-10T01:48:54.532Z,90.94
2018-01-10T01:49:54.494Z,90.56
2018-01-10T01:50:54.375Z,90.94
2018-01-10T01:51:54.292Z,90.56
2018-01-10T01:52:54.211Z,90.66
2018-01-10T01:53:54.134Z,90.85
2018-01-10T01:54:54.053Z,90.85
2018-01-10T01:55:53.974Z,90.75
2018-01-10T01:56:53.887Z,90.75
2018-01-10T01:57:53.807Z,90.75
2018-01-10T01:58:53.732Z,90.75
2018-01-10T01:59:53.647Z,90.75
2018-01-10T02:00:53.604Z,90.47
2018-01-10T02:01:53.494Z,90.19
2018-01-10T02:02:53.414Z,91.04
2018-01-10T02:03:53.336Z,90.37
2018-01-10T02:04:53.251Z,90.19
2018-01-10T02:05:53.165Z,90.47
2018-01-10T02:06:53.095Z,90.47
2018-01-10T02:07:53.019Z,90.56
2018-01-10T02:08:52.932Z,90.56
2018-01-10T02:09:52.849Z,90.75
2018-01-10T02:10:52.772Z,90.47
2018-01-10T02:11:52.715Z,90.56
2018-01-10T02:12:52.609Z,90.85
2018-01-10T02:13:52.525Z,90.94
2018-01-10T02:14:52.449Z,91.13
2018-01-10T02:15:52.372Z,90.85
2018-01-10T02:16:52.290Z,90.47
2018-01-10T02:17:52.218Z,90.47
2018-01-10T02:18:52.126Z,90.09
2018-01-10T02:19:52.052Z,90.47
2018-01-10T02:20:51.968Z,90.00
2018-01-10T02:21:51.890Z,90.47
2018-01-10T02:22:51.813Z,90.66
2018-01-10T02:23:51.727Z,90.47
2018-01-10T02:24:51.650Z,90.37
2018-01-10T02:25:51.570Z,90.47
2018-01-10T02:26:51.484Z,90.47
2018-01-10T02:27:51.434Z,90.37
2018-01-10T02:28:51.363Z,90.47
2018-01-10T02:29:51.298Z,90.66
2018-01-10T02:30:51.170Z,90.19
2018-01-10T02:31:51.086Z,90.00
2018-01-10T02:32:51.012Z,90.19
2018-01-10T02:33:50.928Z,90.19
2018-01-10T02:34:50.847Z,90.09
2018-01-10T02:35:50.771Z,89.80
2018-01-10T02:36:50.692Z,90.00
2018-01-10T02:37:50.604Z,90.19
2018-01-10T02:38:50.530Z,90.19
2018-01-10T02:39:50.443Z,90.00
2018-01-10T02:40:50.368Z,90.37
2018-01-10T02:41:50.285Z,90.00
2018-01-10T02:42:50.213Z,90.37
2018-01-10T02:43:50.153Z,90.19
2018-01-10T02:44:50.050Z,89.90
2018-01-10T02:45:49.972Z,90.04
2018-01-10T02:46:49.892Z,90.09
2018-01-10T02:47:49.802Z,89.80
2018-01-10T02:48:49.723Z,89.90
2018-01-10T02:49:49.651Z,89.80
2018-01-10T02:50:49.563Z,90.09
2018-01-10T02:51:49.489Z,90.09
2018-01-10T02:52:49.409Z,89.90
2018-01-10T02:53:49.330Z,89.61
2018-01-10T02:54:49.248Z,89.61
2018-01-10T02:55:49.196Z,89.61
2018-01-10T02:56:49.091Z,90.00
2018-01-10T02:57:49.008Z,90.75
2018-01-10T02:58:48.924Z,90.66
2018-01-10T02:59:48.843Z,91.04
2018-01-10T03:00:48.770Z,91.61
2018-01-10T03:01:48.712Z,91.80
2018-01-10T03:02:48.606Z,91.71
2018-01-10T03:03:48.530Z,91.61
2018-01-10T03:04:48.442Z,91.99
2018-01-10T03:05:48.362Z,92.46
2018-01-10T03:06:48.306Z,92.56
2018-01-10T03:07:48.210Z,93.41
2018-01-10T03:08:48.123Z,93.23
2018-01-10T03:09:48.049Z,93.13
2018-01-10T03:10:47.963Z,93.32
2018-01-10T03:11:47.916Z,92.94
2018-01-10T03:12:47.802Z,93.23
2018-01-10T03:13:47.728Z,92.94
2018-01-10T03:14:47.646Z,93.04
2018-01-10T03:15:47.567Z,93.41
2018-01-10T03:16:47.485Z,93.51
2018-01-10T03:17:47.402Z,92.94
2018-01-10T03:18:47.334Z,93.99
2018-01-10T03:19:47.248Z,93.04
2018-01-10T03:20:47.169Z,93.41
2018-01-10T03:21:47.082Z,92.56
2018-01-10T03:22:47.026Z,92.56
2018-01-10T03:23:46.919Z,92.94
2018-01-10T03:24:46.841Z,93.23
2018-01-10T03:25:46.760Z,93.32
2018-01-10T03:26:46.681Z,93.13
2018-01-10T03:27:46.629Z,93.13
2018-01-10T03:28:46.526Z,92.85
2018-01-10T03:29:46.467Z,93.13
2018-01-10T03:30:46.370Z,92.85
2018-01-10T03:31:46.280Z,92.94
2018-01-10T03:32:46.200Z,93.41
2018-01-10T03:33:46.131Z,93.13
2018-01-10T03:34:46.037Z,92.85
2018-01-10T03:35:45.959Z,92.66
2018-01-10T03:36:45.884Z,92.37
2018-01-10T03:37:45.805Z,92.56
2018-01-10T03:38:45.783Z,93.04
2018-01-10T03:39:45.646Z,92.46
2018-01-10T03:40:45.565Z,92.56
2018-01-10T03:41:45.482Z,92.27
2018-01-10T03:42:45.403Z,92.27
2018-01-10T03:43:45.315Z,92.37
2018-01-10T03:44:45.235Z,92.66
2018-01-10T03:45:45.157Z,92.27
2018-01-10T03:46:45.076Z,91.89
2018-01-10T03:47:45.004Z,91.80
2018-01-10T03:48:44.921Z,92.27
2018-01-10T03:49:44.854Z,92.18
2018-01-10T03:50:44.761Z,91.89
2018-01-10T03:51:44.677Z,91.71
2018-01-10T03:52:44.593Z,91.99
2018-01-10T03:53:44.514Z,91.61
2018-01-10T03:54:44.473Z,91.71
2018-01-10T03:55:44.359Z,91.89
2018-01-10T03:56:44.279Z,91.80
2018-01-10T03:57:44.195Z,91.33
2018-01-10T03:58:44.124Z,91.61
2018-01-10T03:59:44.034Z,91.52
2018-01-10T04:00:43.961Z,91.23
2018-01-10T04:01:43.885Z,91.23
2018-01-10T04:02:43.791Z,90.94
2018-01-10T04:03:43.711Z,91.71
2018-01-10T04:04:43.637Z,91.04
2018-01-10T04:05:43.599Z,90.94
2018-01-10T04:06:43.475Z,91.13
2018-01-10T04:07:43.402Z,91.52
2018-01-10T04:08:43.313Z,91.04
2018-01-10T04:09:43.233Z,90.85
2018-01-10T04:10:43.162Z,90.94
2018-01-10T04:11:43.081Z,90.94
2018-01-10T04:12:42.993Z,91.04
2018-01-10T04:13:42.925Z,90.94
2018-01-10T04:14:42.841Z,90.85
2018-01-10T04:15:42.754Z,91.04
2018-01-10T04:16:42.703Z,90.66
2018-01-10T04:17:42.592Z,90.66
2018-01-10T04:18:42.512Z,90.94
2018-01-10T04:19:42.436Z,91.04
2018-01-10T04:20:42.360Z,90.75
2018-01-10T04:21:42.278Z,90.37
2018-01-10T04:22:42.202Z,90.85
2018-01-10T04:23:42.116Z,90.85
2018-01-10T04:24:42.034Z,91.13
2018-01-10T04:25:41.954Z,91.04
2018-01-10T04:26:41.871Z,90.56
2018-01-10T04:27:41.819Z,90.94
2018-01-10T04:28:41.714Z,91.23
2018-01-10T04:29:41.632Z,90.47
2018-01-10T04:30:41.559Z,90.56
2018-01-10T04:31:41.471Z,91.04
2018-01-10T04:32:41.398Z,90.94
2018-01-10T04:33:41.313Z,90.56
2018-01-10T04:34:41.243Z,90.85
2018-01-10T04:35:41.151Z,90.75
2018-01-10T04:36:41.078Z,90.70
2018-01-10T04:37:40.995Z,90.94
2018-01-10T04:38:40.937Z,90.80
2018-01-10T04:39:40.843Z,90.85
2018-01-10T04:40:40.748Z,90.85
2018-01-10T04:41:40.678Z,90.47
2018-01-10T04:42:40.602Z,90.47
2018-01-10T04:43:40.516Z,90.75
2018-01-10T04:44:40.433Z,90.47
2018-01-10T04:45:40.358Z,90.56
2018-01-10T04:46:40.279Z,90.00
2018-01-10T04:47:40.200Z,90.56
2018-01-10T04:48:40.115Z,90.19
2018-01-10T04:49:40.066Z,90.28
2018-01-10T04:50:39.953Z,90.28
2018-01-10T04:51:39.878Z,90.66
2018-01-10T04:52:39.792Z,90.56
2018-01-10T04:53:39.711Z,90.52
2018-01-10T04:54:39.630Z,90.61
2018-01-10T04:55:39.559Z,90.00
2018-01-10T04:56:39.498Z,90.66
2018-01-10T04:57:39.395Z,90.47
2018-01-10T04:58:39.319Z,90.66
2018-01-10T04:59:39.230Z,90.52
2018-01-10T05:00:39.175Z,90.52
2018-01-10T05:01:39.074Z,90.28
2018-01-10T05:02:38.998Z,90.33
2018-01-10T05:03:38.917Z,89.80
2018-01-10T05:04:38.829Z,90.70
2018-01-10T05:05:38.779Z,90.42
2018-01-10T05:06:38.681Z,90.23
2018-01-10T05:07:38.595Z,90.23
2018-01-10T05:08:38.524Z,89.94
2018-01-10T05:09:38.432Z,90.33
2018-01-10T05:10:38.353Z,90.61
2018-01-10T05:11:38.276Z,90.04
2018-01-10T05:12:38.198Z,90.14
2018-01-10T05:13:38.119Z,90.14
2018-01-10T05:14:38.044Z,89.94
2018-01-10T05:15:37.955Z,90.23
2018-01-10T05:16:37.913Z,90.33
2018-01-10T05:17:37.796Z,90.04
2018-01-10T05:18:37.722Z,90.23
2018-01-10T05:19:37.642Z,90.04
2018-01-10T05:20:37.573Z,90.33
2018-01-10T05:21:37.479Z,89.94
2018-01-10T05:22:37.406Z,89.94
2018-01-10T05:23:37.312Z,90.23
2018-01-10T05:24:37.232Z,90.42
2018-01-10T05:25:37.161Z,90.04
2018-01-10T05:26:37.075Z,90.42
2018-01-10T05:27:37.029Z,90.33
2018-01-10T05:28:36.920Z,90.33
2018-01-10T05:29:36.844Z,90.42
2018-01-10T05:30:36.756Z,89.94
2018-01-10T05:31:36.684Z,89.85
2018-01-10T05:32:36.595Z,90.33
2018-01-10T05:33:36.531Z,90.04
2018-01-10T05:34:36.444Z,90.04
2018-01-10T05:35:36.361Z,90.33
2018-01-10T05:36:36.323Z,90.04
2018-01-10T05:37:36.198Z,89.85
2018-01-10T05:38:36.152Z,90.04
2018-01-10T05:39:36.035Z,90.04
2018-01-10T05:40:35.961Z,89.85
2018-01-10T05:41:35.878Z,90.14
2018-01-10T05:42:35.807Z,90.14
2018-01-10T05:43:35.724Z,90.42
2018-01-10T05:44:35.640Z,90.14
2018-01-10T05:45:35.558Z,90.04
2018-01-10T05:46:35.487Z,90.14
2018-01-10T05:47:35.403Z,90.23
2018-01-10T05:48:35.319Z,90.42
2018-01-10T05:49:35.277Z,90.52
2018-01-10T05:50:35.164Z,90.23
2018-01-10T05:51:35.089Z,90.33
2018-01-10T05:52:35.009Z,90.04
2018-01-10T05:53:34.933Z,90.42
2018-01-10T05:54:34.847Z,90.33
2018-01-10T05:55:34.762Z,90.42
2018-01-10T05:56:34.683Z,90.33
2018-01-10T05:57:34.612Z,90.80
2018-01-10T05:58:34.522Z,90.70
2018-01-10T05:59:34.446Z,90.52
2018-01-10T06:00:34.390Z,90.14
2018-01-10T06:01:34.290Z,90.42
2018-01-10T06:02:34.204Z,90.33
2018-01-10T06:03:34.123Z,90.52
2018-01-10T06:04:34.042Z,90.70
2018-01-10T06:05:33.995Z,90.23
2018-01-10T06:06:33.893Z,90.42
2018-01-10T06:07:33.808Z,90.42
2018-01-10T06:08:33.724Z,90.23
2018-01-10T06:09:33.648Z,90.42
2018-01-10T06:10:33.571Z,90.61
2018-01-10T06:11:33.490Z,90.52
2018-01-10T06:12:33.406Z,90.42
2018-01-10T06:13:33.333Z,90.61
2018-01-10T06:14:33.244Z,90.14
2018-01-10T06:15:33.166Z,90.23
2018-01-10T06:16:33.118Z,90.70
2018-01-10T06:17:33.016Z,90.04
2018-01-10T06:18:32.926Z,90.61
2018-01-10T06:19:32.844Z,90.42
2018-01-10T06:20:32.774Z,90.23
2018-01-10T06:21:32.682Z,90.52
2018-01-10T06:22:32.618Z,90.52
2018-01-10T06:23:32.533Z,90.42
2018-01-10T06:24:32.456Z,90.80
2018-01-10T06:25:32.409Z,90.61
2018-01-10T06:26:32.306Z,90.99
2018-01-10T06:27:32.230Z,90.89
2018-01-10T06:28:32.125Z,90.70
2018-01-10T06:29:32.055Z,90.89
2018-01-10T06:30:31.995Z,90.89
2018-01-10T06:31:31.889Z,91.94
2018-01-10T06:32:31.843Z,90.61
2018-01-10T06:33:31.729Z,91.85
2018-01-10T06:34:31.649Z,91.66
2018-01-10T06:35:31.570Z,91.75
2018-01-10T06:36:31.489Z,91.47
2018-01-10T06:37:31.410Z,91.66
2018-01-10T06:38:31.336Z,91.66
2018-01-10T06:39:31.249Z,91.66
2018-01-10T06:40:31.169Z,91.56
2018-01-10T06:41:31.088Z,91.85
2018-01-10T06:42:31.017Z,92.22
2018-01-10T06:43:30.969Z,93.37
2018-01-10T06:44:30.855Z,93.94
2018-01-10T06:45:30.769Z,94.32
2018-01-10T06:46:30.694Z,94.42
2018-01-10T06:47:30.616Z,94.79
2018-01-10T06:48:30.532Z,95.79
2018-01-10T06:49:30.458Z,95.89
2018-01-10T06:50:30.386Z,96.45
2018-01-10T06:51:30.302Z,96.55
2018-01-10T06:52:30.212Z,97.12
2018-01-10T06:53:30.138Z,96.17
2018-01-10T06:54:30.086Z,96.93
2018-01-10T06:55:29.969Z,97.50
2018-01-10T06:56:29.894Z,97.60
2018-01-10T06:57:29.813Z,97.41
2018-01-10T06:58:29.782Z,97.41
2018-01-10T06:59:29.656Z,97.31
2018-01-10T07:00:29.578Z,97.41
2018-01-10T07:01:29.490Z,97.69
2018-01-10T07:02:29.417Z,98.17
2018-01-10T07:03:29.330Z,97.50
2018-01-10T07:04:29.255Z,98.36
2018-01-10T07:05:29.192Z,98.07
2018-01-10T07:06:29.096Z,98.74
2018-01-10T07:07:29.007Z,98.93
2018-01-10T07:08:28.938Z,97.88
2018-01-10T07:09:28.857Z,97.97
2018-01-10T07:10:28.772Z,98.17
2018-01-10T07:11:28.687Z,98.36
2018-01-10T07:12:28.609Z,98.26
2018-01-10T07:13:28.541Z,98.36
2018-01-10T07:14:28.445Z,97.78
2018-01-10T07:15:28.414Z,98.45
2018-01-10T07:16:28.295Z,98.36
2018-01-10T07:17:28.211Z,97.60
2018-01-10T07:18:28.124Z,98.17
2018-01-10T07:19:28.059Z,98.55
2018-01-10T07:20:28.006Z,97.69
2018-01-10T07:21:27.892Z,97.78
2018-01-10T07:22:27.802Z,97.97
2018-01-10T07:23:27.723Z,97.69
2018-01-10T07:24:27.651Z,97.60
2018-01-10T07:25:27.564Z,97.41
2018-01-10T07:26:27.489Z,97.69
2018-01-10T07:27:27.407Z,97.50
2018-01-10T07:28:27.331Z,98.64
2018-01-10T07:29:27.249Z,97.50
2018-01-10T07:30:27.170Z,97.31
2018-01-10T07:31:27.103Z,97.41
2018-01-10T07:32:27.000Z,97.41
2018-01-10T07:33:26.938Z,97.78
2018-01-10T07:34:26.846Z,97.97
2018-01-10T07:35:26.768Z,97.50
2018-01-10T07:36:26.713Z,97.50
2018-01-10T07:37:26.602Z,97.41
2018-01-10T07:38:26.522Z,97.69
2018-01-10T07:39:26.446Z,97.78
2018-01-10T07:40:26.366Z,98.07
2018-01-10T07:41:26.275Z,97.97
2018-01-10T07:42:26.207Z,97.97
2018-01-10T07:43:26.124Z,97.78
2018-01-10T07:44:26.039Z,98.36
2018-01-10T07:45:25.958Z,97.88
2018-01-10T07:46:25.883Z,98.45
2018-01-10T07:47:25.804Z,98.45
2018-01-10T07:48:25.717Z,98.26
2018-01-10T07:49:25.644Z,98.45
2018-01-10T07:50:25.563Z,98.74
2018-01-10T07:51:25.478Z,98.36
2018-01-10T07:52:25.420Z,98.36
2018-01-10T07:53:25.320Z,97.60
2018-01-10T07:54:25.234Z,97.03
2018-01-10T07:55:25.199Z,97.88
2018-01-10T07:56:25.081Z,97.50
2018-01-10T07:57:25.024Z,97.69
2018-01-10T07:58:24.921Z,97.60
2018-01-10T07:59:24.842Z,97.45
2018-01-10T08:00:24.762Z,96.89
2018-01-10T08:01:24.679Z,96.79
2018-01-10T08:02:24.633Z,96.89
2018-01-10T08:03:24.515Z,96.98
2018-01-10T08:04:24.439Z,96.31
2018-01-10T08:05:24.361Z,96.31
2018-01-10T08:06:24.281Z,96.03
2018-01-10T08:07:24.193Z,96.12
2018-01-10T08:08:24.134Z,95.84
2018-01-10T08:09:24.040Z,96.12
2018-01-10T08:10:23.951Z,95.36
2018-01-10T08:11:23.878Z,95.27
2018-01-10T08:12:23.795Z,95.27
2018-01-10T08:13:23.748Z,95.36
2018-01-10T08:14:23.650Z,95.65
2018-01-10T08:15:23.559Z,94.98
2018-01-10T08:16:23.474Z,95.46
2018-01-10T08:17:23.399Z,95.46
2018-01-10T08:18:23.322Z,95.65
2018-01-10T08:19:23.241Z,95.46
2018-01-10T08:20:23.151Z,95.36
2018-01-10T08:21:23.080Z,95.46
2018-01-10T08:22:22.991Z,94.89
2018-01-10T08:23:22.917Z,94.13
2018-01-10T08:24:22.842Z,94.32
2018-01-10T08:25:22.759Z,94.32
2018-01-10T08:26:22.671Z,94.32
2018-01-10T08:27:22.591Z,94.32
2018-01-10T08:28:22.522Z,94.42
2018-01-10T08:29:22.452Z,93.94
2018-01-10T08:30:22.353Z,97.55
2018-01-10T08:31:22.277Z,95.70
2018-01-10T08:32:22.192Z,91.89
2018-01-10T08:33:22.119Z,90.61
2018-01-10T08:34:22.069Z,89.94
2018-01-10T08:35:21.957Z,89.18
2018-01-10T08:36:21.870Z,89.65
2018-01-10T08:37:21.792Z,89.75
2018-01-10T08:38:21.710Z,90.13
2018-01-10T08:39:21.637Z,90.13
2018-01-10T08:40:21.557Z,89.99
2018-01-10T08:41:21.477Z,90.75
2018-01-10T08:42:21.399Z,90.66
2018-01-10T08:43:21.318Z,91.32
2018-01-10T08:44:21.230Z,91.03
2018-01-10T08:45:21.184Z,91.42
2018-01-10T08:46:21.075Z,91.22
2018-01-10T08:47:21.000Z,91.42
2018-01-10T08:48:20.921Z,91.70
2018-01-10T08:49:20.844Z,91.51
2018-01-10T08:50:20.785Z,91.80
2018-01-10T08:51:20.671Z,91.56
2018-01-10T08:52:20.599Z,91.66
2018-01-10T08:53:20.524Z,91.56
2018-01-10T08:54:20.438Z,91.70
2018-01-10T08:55:20.361Z,91.75
2018-01-10T08:56:20.279Z,91.85
2018-01-10T08:57:20.206Z,91.47
2018-01-10T08:58:20.118Z,91.85
2018-01-10T08:59:20.044Z,91.66
2018-01-10T09:00:19.971Z,92.22
2018-01-10T09:01:19.899Z,92.22
2018-01-10T09:02:19.802Z,92.03
2018-01-10T09:03:19.722Z,92.13
2018-01-10T09:04:19.646Z,91.75
2018-01-10T09:05:19.569Z,91.56
2018-01-10T09:06:19.511Z,92.03
2018-01-10T09:07:19.397Z,91.18
2018-01-10T09:08:19.319Z,90.99
2018-01-10T09:09:19.247Z,91.28
2018-01-10T09:10:19.166Z,91.66
2018-01-10T09:11:19.085Z,91.56
2018-01-10T09:12:19.005Z,90.99
2018-01-10T09:13:18.916Z,90.89
2018-01-10T09:14:18.842Z,91.37
2018-01-10T09:15:18.773Z,91.61
2018-01-10T09:16:18.681Z,91.03
2018-01-10T09:17:18.629Z,90.99
2018-01-10T09:18:18.528Z,91.03
2018-01-10T09:19:18.452Z,90.94
2018-01-10T09:20:18.372Z,90.37
2018-01-10T09:21:18.283Z,90.47
2018-01-10T09:22:18.211Z,90.56
2018-01-10T09:23:18.148Z,90.08
2018-01-10T09:24:18.045Z,90.28
2018-01-10T09:25:17.967Z,89.89
2018-01-10T09:26:17.893Z,90.66
2018-01-10T09:27:17.805Z,90.37
2018-01-10T09:28:17.749Z,89.89
2018-01-10T09:29:17.652Z,91.13
2018-01-10T09:30:17.574Z,91.03
2018-01-10T09:31:17.486Z,90.37
2018-01-10T09:32:17.413Z,90.66
2018-01-10T09:33:17.363Z,90.47
2018-01-10T09:34:17.258Z,90.66
2018-01-10T09:35:17.174Z,90.56
2018-01-10T09:36:17.093Z,90.37
2018-01-10T09:37:17.009Z,90.75
2018-01-10T09:38:16.959Z,90.18
2018-01-10T09:39:16.848Z,89.70
2018-01-10T09:40:16.769Z,89.42
2018-01-10T09:41:16.692Z,89.51
2018-01-10T09:42:16.612Z,89.14
2018-01-10T09:43:16.600Z,89.42
2018-01-10T09:44:16.458Z,89.42
2018-01-10T09:45:16.382Z,89.51
2018-01-10T09:46:16.300Z,88.46
2018-01-10T09:47:16.216Z,88.18
2018-01-10T09:48:16.137Z,88.56
2018-01-10T09:49:16.085Z,88.18
2018-01-10T09:50:15.980Z,87.90
2018-01-10T09:51:15.898Z,87.80
2018-01-10T09:52:15.822Z,87.52
2018-01-10T09:53:15.743Z,87.42
2018-01-10T09:54:15.700Z,87.71
2018-01-10T09:55:15.576Z,87.23
2018-01-10T09:56:15.507Z,87.90
2018-01-10T09:57:15.418Z,87.42
2018-01-10T09:58:15.348Z,87.99
2018-01-10T09:59:15.293Z,87.32
2018-01-10T10:00:15.185Z,87.04
2018-01-10T10:01:15.129Z,87.99
2018-01-10T10:02:15.030Z,87.04
2018-01-10T10:03:14.942Z,87.90
2018-01-10T10:04:14.863Z,87.80
2018-01-10T10:05:14.793Z,87.52
2018-01-10T10:06:14.729Z,87.71
2018-01-10T10:07:14.631Z,87.71
2018-01-10T10:08:14.573Z,87.61
2018-01-10T10:09:14.470Z,87.42
2018-01-10T10:10:14.417Z,87.04
2018-01-10T10:11:14.312Z,86.76
2018-01-10T10:12:14.227Z,86.76
2018-01-10T10:13:14.163Z,86.76
2018-01-10T10:14:14.069Z,86.66
2018-01-10T10:15:14.023Z,87.52
2018-01-10T10:16:13.917Z,87.04
2018-01-10T10:17:13.845Z,87.42
2018-01-10T10:18:13.758Z,86.94
2018-01-10T10:19:13.672Z,87.32
2018-01-10T10:20:13.591Z,87.61
2018-01-10T10:21:13.521Z,87.90
2018-01-10T10:22:13.432Z,87.52
2018-01-10T10:23:13.354Z,87.80
2018-01-10T10:24:13.280Z,87.32
2018-01-10T10:25:13.203Z,87.42
2018-01-10T10:26:13.119Z,87.52
2018-01-10T10:27:13.037Z,87.32
2018-01-10T10:28:12.964Z,87.32
2018-01-10T10:29:12.875Z,86.94
2018-01-10T10:30:12.806Z,87.23
2018-01-10T10:31:12.726Z,87.23
2018-01-10T10:32:12.646Z,87.04
2018-01-10T10:33:12.560Z,86.94
2018-01-10T10:34:12.487Z,87.04
2018-01-10T10:35:12.404Z,86.85
2018-01-10T10:36:12.334Z,86.47
2018-01-10T10:37:12.248Z,86.09
2018-01-10T10:38:12.175Z,86.09
2018-01-10T10:39:12.113Z,85.90
2018-01-10T10:40:12.012Z,85.80
2018-01-10T10:41:11.965Z,85.61
2018-01-10T10:42:11.845Z,86.47
2018-01-10T10:43:11.767Z,85.71
2018-01-10T10:44:11.687Z,85.37
2018-01-10T10:45:11.618Z,85.33
2018-01-10T10:46:11.538Z,85.56
2018-01-10T10:47:11.452Z,84.66
2018-01-10T10:48:11.370Z,85.52
2018-01-10T10:49:11.362Z,85.85
2018-01-10T10:50:11.212Z,84.70
2018-01-10T10:51:11.139Z,84.80
2018-01-10T10:52:11.058Z,84.52
2018-01-10T10:53:10.998Z,84.99
2018-01-10T10:54:10.901Z,84.89
2018-01-10T10:55:10.817Z,84.52
2018-01-10T10:56:10.742Z,84.42
2018-01-10T10:57:10.692Z,84.70
2018-01-10T10:58:10.590Z,84.80
2018-01-10T10:59:10.501Z,84.80
2018-01-10T11:00:10.426Z,84.33
2018-01-10T11:01:10.356Z,84.13
2018-01-10T11:02:10.294Z,84.13
2018-01-10T11:03:10.189Z,84.13
2018-01-10T11:04:10.108Z,83.56
2018-01-10T11:05:10.026Z,83.37
2018-01-10T11:06:09.956Z,83.56
2018-01-10T11:07:09.865Z,83.65
2018-01-10T11:08:09.789Z,82.80
2018-01-10T11:09:09.711Z,83.18
2018-01-10T11:10:09.630Z,83.13
2018-01-10T11:11:09.550Z,83.09
2018-01-10T11:12:09.481Z,83.75
2018-01-10T11:13:09.403Z,83.13
2018-01-10T11:14:09.322Z,83.32
2018-01-10T11:15:09.244Z,81.95
2018-01-10T11:16:09.164Z,82.18
2018-01-10T11:17:09.083Z,82.46
2018-01-10T11:18:09.028Z,82.90
2018-01-10T11:19:08.924Z,81.85
2018-01-10T11:20:08.842Z,82.14
2018-01-10T11:21:08.764Z,82.90
2018-01-10T11:22:08.684Z,82.90
2018-01-10T11:23:08.634Z,82.70
2018-01-10T11:24:08.534Z,83.18
2018-01-10T11:25:08.456Z,83.47
2018-01-10T11:26:08.371Z,82.90
2018-01-10T11:27:08.291Z,83.18
2018-01-10T11:28:08.220Z,82.90
2018-01-10T11:29:08.142Z,82.99
2018-01-10T11:30:08.057Z,82.51
2018-01-10T11:31:07.977Z,82.23
2018-01-10T11:32:07.901Z,82.14
2018-01-10T11:33:07.822Z,82.32
2018-01-10T11:34:07.746Z,82.27
2018-01-10T11:35:07.662Z,82.84
2018-01-10T11:36:07.588Z,81.98
2018-01-10T11:37:07.504Z,80.84
2018-01-10T11:38:07.455Z,80.94
2018-01-10T11:39:07.374Z,79.99
2018-01-10T11:40:07.274Z,79.70
2018-01-10T11:41:07.188Z,80.18
2018-01-10T11:42:07.112Z,79.32
2018-01-10T11:43:07.038Z,79.60
2018-01-10T11:44:07.000Z,79.80
2018-01-10T11:45:06.880Z,79.60
2018-01-10T11:46:06.802Z,79.70
2018-01-10T11:47:06.722Z,79.70
2018-01-10T11:48:06.656Z,79.70
2018-01-10T11:49:06.566Z,79.32
2018-01-10T11:50:06.484Z,79.80
2018-01-10T11:51:06.408Z,79.41
2018-01-10T11:52:06.325Z,79.80
2018-01-10T11:53:06.254Z,79.80
2018-01-10T11:54:06.169Z,79.60
2018-01-10T11:55:06.123Z,79.80
2018-01-10T11:56:06.011Z,79.32
2018-01-10T11:57:05.934Z,78.85
2018-01-10T11:58:05.859Z,79.22
2018-01-10T11:59:05.771Z,78.56
2018-01-10T12:00:05.696Z,78.85
2018-01-10T12:01:05.623Z,77.89
2018-01-10T12:02:05.544Z,77.98
2018-01-10T12:03:05.466Z,78.65
2018-01-10T12:04:05.389Z,78.85
2018-01-10T12:05:05.300Z,78.85
2018-01-10T12:06:05.260Z,77.89
2018-01-10T12:07:05.155Z,77.98
2018-01-10T12:08:05.071Z,78.56
2018-01-10T12:09:04.991Z,77.03
2018-01-10T12:10:04.918Z,77.98
2018-01-10T12:11:04.838Z,77.80
2018-01-10T12:12:04.759Z,77.51
2018-01-10T12:13:04.673Z,77.13
2018-01-10T12:14:04.594Z,77.98
2018-01-10T12:15:04.525Z,78.08
2018-01-10T12:16:04.445Z,77.42
2018-01-10T12:17:04.369Z,77.32
2018-01-10T12:18:04.289Z,77.13
2018-01-10T12:19:04.202Z,76.75
2018-01-10T12:20:04.129Z,76.84
2018-01-10T12:21:04.056Z,76.84
2018-01-10T12:22:04.028Z,77.42
2018-01-10T12:23:03.900Z,77.22
2018-01-10T12:24:03.813Z,77.22
2018-01-10T12:25:03.733Z,77.89
2018-01-10T12:26:03.660Z,77.70
2018-01-10T12:27:03.612Z,77.03
2018-01-10T12:28:03.498Z,77.03
2018-01-10T12:29:03.427Z,77.03
2018-01-10T12:30:03.396Z,77.13
2018-01-10T12:31:03.268Z,77.13
2018-01-10T12:32:03.187Z,78.08
2018-01-10T12:33:03.115Z,77.32
2018-01-10T12:34:03.025Z,77.98
2018-01-10T12:35:02.952Z,77.89
2018-01-10T12:36:02.879Z,77.80
2018-01-10T12:37:02.796Z,78.08
2018-01-10T12:38:02.721Z,78.46
2018-01-10T12:39:02.636Z,77.61
2018-01-10T12:40:02.586Z,77.70
2018-01-10T12:41:02.481Z,77.22
2018-01-10T12:42:02.400Z,77.51
2018-01-10T12:43:02.349Z,77.13
2018-01-10T12:44:02.253Z,77.22
2018-01-10T12:45:02.168Z,77.13
2018-01-10T12:46:02.091Z,76.84
2018-01-10T12:47:02.008Z,77.03
2018-01-10T12:48:01.928Z,78.08
2018-01-10T12:49:01.853Z,77.80
2018-01-10T12:50:01.771Z,77.03
2018-01-10T12:51:01.697Z,77.89